sensor_id;sensor_type;location;lat;lon;timestamp;temperature;humidity
2579;DHT22;1299;48.282;14.398;2023-06-14T00:00:50;13.60;99.90
2579;DHT22;1299;48.282;14.398;2023-06-14T00:03:18;13.60;99.90
2579;DHT22;1299;48.282;14.398;2023-06-14T00:05:47;13.50;99.90
2579;DHT22;1299;48.282;14.398;2023-06-14T00:08:16;13.50;99.90
2579;DHT22;1299;48.282;14.398;2023-06-14T00:10:44;13.40;99.90
2579;DHT22;1299;48.282;14.398;2023-06-14T00:13:11;13.40;99.90
2579;DHT22;1299;48.282;14.398;2023-06-14T00:15:38;13.30;99.90
2579;DHT22;1299;48.282;14.398;2023-06-14T00:18:05;13.20;99.90
2579;DHT22;1299;48.282;14.398;2023-06-14T00:20:33;13.20;99.90
2579;DHT22;1299;48.282;14.398;2023-06-14T00:23:00;13.10;99.90
2579;DHT22;1299;48.282;14.398;2023-06-14T00:25:29;13.10;99.90
2579;DHT22;1299;48.282;14.398;2023-06-14T00:27:56;13.00;99.90
2579;DHT22;1299;48.282;14.398;2023-06-14T00:30:24;13.00;99.90
2579;DHT22;1299;48.282;14.398;2023-06-14T00:32:56;12.90;99.90
2579;DHT22;1299;48.282;14.398;2023-06-14T00:35:24;12.90;99.90
2579;DHT22;1299;48.282;14.398;2023-06-14T00:37:51;12.90;99.90
2579;DHT22;1299;48.282;14.398;2023-06-14T00:40:20;12.90;99.90
2579;DHT22;1299;48.282;14.398;2023-06-14T00:42:48;12.80;99.90
2579;DHT22;1299;48.282;14.398;2023-06-14T00:45:15;12.70;99.90
2579;DHT22;1299;48.282;14.398;2023-06-14T00:47:43;12.60;99.90
2579;DHT22;1299;48.282;14.398;2023-06-14T00:50:11;12.60;99.90
2579;DHT22;1299;48.282;14.398;2023-06-14T00:52:39;12.60;99.90
2579;DHT22;1299;48.282;14.398;2023-06-14T00:55:07;12.60;99.90
2579;DHT22;1299;48.282;14.398;2023-06-14T00:57:34;12.50;99.90
2579;DHT22;1299;48.282;14.398;2023-06-14T01:00:05;12.50;99.90
2579;DHT22;1299;48.282;14.398;2023-06-14T01:02:35;12.50;99.90
2579;DHT22;1299;48.282;14.398;2023-06-14T01:05:02;12.50;99.90
2579;DHT22;1299;48.282;14.398;2023-06-14T01:07:40;12.50;99.90
2579;DHT22;1299;48.282;14.398;2023-06-14T01:10:19;12.50;99.90
2579;DHT22;1299;48.282;14.398;2023-06-14T01:12:50;12.40;99.90
2579;DHT22;1299;48.282;14.398;2023-06-14T01:15:21;12.40;99.90
2579;DHT22;1299;48.282;14.398;2023-06-14T01:17:49;12.40;99.90
2579;DHT22;1299;48.282;14.398;2023-06-14T01:20:17;12.40;99.90
2579;DHT22;1299;48.282;14.398;2023-06-14T01:22:52;12.50;99.90
2579;DHT22;1299;48.282;14.398;2023-06-14T01:25:19;12.50;99.90
2579;DHT22;1299;48.282;14.398;2023-06-14T01:27:48;12.50;99.90
2579;DHT22;1299;48.282;14.398;2023-06-14T01:30:17;12.40;99.90
2579;DHT22;1299;48.282;14.398;2023-06-14T01:32:45;12.40;99.90
2579;DHT22;1299;48.282;14.398;2023-06-14T01:35:12;12.40;99.90
2579;DHT22;1299;48.282;14.398;2023-06-14T01:37:40;12.30;99.90
2579;DHT22;1299;48.282;14.398;2023-06-14T01:40:10;12.30;99.90
2579;DHT22;1299;48.282;14.398;2023-06-14T01:42:38;12.30;99.90
2579;DHT22;1299;48.282;14.398;2023-06-14T01:45:07;12.30;99.90
2579;DHT22;1299;48.282;14.398;2023-06-14T01:47:35;12.30;99.90
2579;DHT22;1299;48.282;14.398;2023-06-14T01:50:03;12.30;99.90
2579;DHT22;1299;48.282;14.398;2023-06-14T01:52:30;12.30;99.90
2579;DHT22;1299;48.282;14.398;2023-06-14T01:54:57;12.30;99.90
2579;DHT22;1299;48.282;14.398;2023-06-14T01:57:31;12.30;99.90
2579;DHT22;1299;48.282;14.398;2023-06-14T01:59:58;12.30;99.90
2579;DHT22;1299;48.282;14.398;2023-06-14T02:02:26;12.30;99.90
2579;DHT22;1299;48.282;14.398;2023-06-14T02:04:53;12.20;99.90
2579;DHT22;1299;48.282;14.398;2023-06-14T02:07:22;12.30;99.90
2579;DHT22;1299;48.282;14.398;2023-06-14T02:09:49;12.20;99.90
2579;DHT22;1299;48.282;14.398;2023-06-14T02:12:16;12.20;99.90
2579;DHT22;1299;48.282;14.398;2023-06-14T02:14:45;12.10;99.90
2579;DHT22;1299;48.282;14.398;2023-06-14T02:17:12;12.00;99.90
2579;DHT22;1299;48.282;14.398;2023-06-14T02:19:39;11.90;99.90
2579;DHT22;1299;48.282;14.398;2023-06-14T02:22:06;12.00;99.90
2579;DHT22;1299;48.282;14.398;2023-06-14T02:24:33;11.40;99.90
2579;DHT22;1299;48.282;14.398;2023-06-14T02:27:01;11.60;99.90
2579;DHT22;1299;48.282;14.398;2023-06-14T02:29:29;11.60;99.90
2579;DHT22;1299;48.282;14.398;2023-06-14T02:31:57;11.50;99.90
2579;DHT22;1299;48.282;14.398;2023-06-14T02:34:24;11.70;99.90
2579;DHT22;1299;48.282;14.398;2023-06-14T02:36:51;11.80;99.90
2579;DHT22;1299;48.282;14.398;2023-06-14T02:39:18;11.90;99.90
2579;DHT22;1299;48.282;14.398;2023-06-14T02:41:46;11.60;99.90
2579;DHT22;1299;48.282;14.398;2023-06-14T02:44:13;11.70;99.90
2579;DHT22;1299;48.282;14.398;2023-06-14T02:46:40;11.80;99.90
2579;DHT22;1299;48.282;14.398;2023-06-14T02:49:10;11.50;99.90
2579;DHT22;1299;48.282;14.398;2023-06-14T02:51:37;11.40;99.90
2579;DHT22;1299;48.282;14.398;2023-06-14T02:54:04;11.70;99.90
2579;DHT22;1299;48.282;14.398;2023-06-14T02:56:31;11.60;99.90
2579;DHT22;1299;48.282;14.398;2023-06-14T02:58:58;11.70;99.90
2579;DHT22;1299;48.282;14.398;2023-06-14T03:01:26;11.80;99.90
2579;DHT22;1299;48.282;14.398;2023-06-14T03:04:00;11.70;99.90
2579;DHT22;1299;48.282;14.398;2023-06-14T03:06:30;11.70;99.90
2579;DHT22;1299;48.282;14.398;2023-06-14T03:08:57;11.50;99.90
2579;DHT22;1299;48.282;14.398;2023-06-14T03:11:26;11.50;99.90
2579;DHT22;1299;48.282;14.398;2023-06-14T03:13:54;11.40;99.90
2579;DHT22;1299;48.282;14.398;2023-06-14T03:16:22;11.50;99.90
2579;DHT22;1299;48.282;14.398;2023-06-14T03:18:51;11.60;99.90
2579;DHT22;1299;48.282;14.398;2023-06-14T03:21:18;11.60;99.90
2579;DHT22;1299;48.282;14.398;2023-06-14T03:23:46;11.60;99.90
2579;DHT22;1299;48.282;14.398;2023-06-14T03:26:13;11.70;99.90
2579;DHT22;1299;48.282;14.398;2023-06-14T03:28:43;11.80;99.90
2579;DHT22;1299;48.282;14.398;2023-06-14T03:31:10;11.70;99.90
2579;DHT22;1299;48.282;14.398;2023-06-14T03:33:37;11.80;99.90
2579;DHT22;1299;48.282;14.398;2023-06-14T03:36:05;11.80;99.90
2579;DHT22;1299;48.282;14.398;2023-06-14T03:38:33;12.10;99.90
2579;DHT22;1299;48.282;14.398;2023-06-14T03:41:02;11.90;99.90
2579;DHT22;1299;48.282;14.398;2023-06-14T03:43:29;12.20;99.90
2579;DHT22;1299;48.282;14.398;2023-06-14T03:45:56;12.20;99.90
2579;DHT22;1299;48.282;14.398;2023-06-14T03:48:23;12.40;99.90
2579;DHT22;1299;48.282;14.398;2023-06-14T03:50:50;12.50;99.90
2579;DHT22;1299;48.282;14.398;2023-06-14T03:53:17;12.50;99.90
2579;DHT22;1299;48.282;14.398;2023-06-14T03:55:46;12.60;99.90
2579;DHT22;1299;48.282;14.398;2023-06-14T03:58:15;12.70;99.90
2579;DHT22;1299;48.282;14.398;2023-06-14T04:00:42;12.60;99.90
2579;DHT22;1299;48.282;14.398;2023-06-14T04:03:10;12.70;99.90
2579;DHT22;1299;48.282;14.398;2023-06-14T04:05:38;12.60;99.90
2579;DHT22;1299;48.282;14.398;2023-06-14T04:08:07;12.60;99.90
2579;DHT22;1299;48.282;14.398;2023-06-14T04:10:35;12.70;99.90
2579;DHT22;1299;48.282;14.398;2023-06-14T04:13:02;12.80;99.90
2579;DHT22;1299;48.282;14.398;2023-06-14T04:15:31;12.80;99.90
2579;DHT22;1299;48.282;14.398;2023-06-14T04:17:59;12.80;99.90
2579;DHT22;1299;48.282;14.398;2023-06-14T04:20:26;12.70;99.90
2579;DHT22;1299;48.282;14.398;2023-06-14T04:22:53;12.70;99.90
2579;DHT22;1299;48.282;14.398;2023-06-14T04:25:22;12.80;99.90
2579;DHT22;1299;48.282;14.398;2023-06-14T04:27:51;12.80;99.90
2579;DHT22;1299;48.282;14.398;2023-06-14T04:30:19;12.80;99.90
2579;DHT22;1299;48.282;14.398;2023-06-14T04:32:48;12.90;99.90
2579;DHT22;1299;48.282;14.398;2023-06-14T04:35:15;12.90;99.90
2579;DHT22;1299;48.282;14.398;2023-06-14T04:37:42;13.00;99.90
2579;DHT22;1299;48.282;14.398;2023-06-14T04:40:11;13.00;99.90
2579;DHT22;1299;48.282;14.398;2023-06-14T04:42:38;13.10;99.90
2579;DHT22;1299;48.282;14.398;2023-06-14T04:45:07;13.00;99.90
2579;DHT22;1299;48.282;14.398;2023-06-14T04:47:35;13.20;99.90
2579;DHT22;1299;48.282;14.398;2023-06-14T04:50:06;13.40;99.90
2579;DHT22;1299;48.282;14.398;2023-06-14T04:52:33;13.50;99.90
2579;DHT22;1299;48.282;14.398;2023-06-14T04:55:01;13.70;99.90
2579;DHT22;1299;48.282;14.398;2023-06-14T04:57:28;13.80;99.90
2579;DHT22;1299;48.282;14.398;2023-06-14T04:59:56;13.90;99.90
2579;DHT22;1299;48.282;14.398;2023-06-14T05:02:23;14.10;99.90
2579;DHT22;1299;48.282;14.398;2023-06-14T05:04:51;14.30;99.90
2579;DHT22;1299;48.282;14.398;2023-06-14T05:07:20;14.50;99.90
2579;DHT22;1299;48.282;14.398;2023-06-14T05:09:49;14.70;99.90
2579;DHT22;1299;48.282;14.398;2023-06-14T05:12:16;14.60;99.90
2579;DHT22;1299;48.282;14.398;2023-06-14T05:14:44;14.70;99.90
2579;DHT22;1299;48.282;14.398;2023-06-14T05:17:11;15.00;99.90
2579;DHT22;1299;48.282;14.398;2023-06-14T05:19:38;15.10;99.90
2579;DHT22;1299;48.282;14.398;2023-06-14T05:22:05;15.40;99.90
2579;DHT22;1299;48.282;14.398;2023-06-14T05:24:34;15.80;99.90
2579;DHT22;1299;48.282;14.398;2023-06-14T05:27:00;15.80;99.90
2579;DHT22;1299;48.282;14.398;2023-06-14T05:29:27;15.90;99.90
2579;DHT22;1299;48.282;14.398;2023-06-14T05:31:54;16.40;99.90
2579;DHT22;1299;48.282;14.398;2023-06-14T05:34:21;16.70;99.90
2579;DHT22;1299;48.282;14.398;2023-06-14T05:36:48;17.00;99.90
2579;DHT22;1299;48.282;14.398;2023-06-14T05:39:15;17.20;99.90
2579;DHT22;1299;48.282;14.398;2023-06-14T05:41:44;17.20;99.90
2579;DHT22;1299;48.282;14.398;2023-06-14T05:44:11;17.60;99.90
2579;DHT22;1299;48.282;14.398;2023-06-14T05:46:38;17.70;99.90
2579;DHT22;1299;48.282;14.398;2023-06-14T05:49:05;17.40;99.90
2579;DHT22;1299;48.282;14.398;2023-06-14T05:51:32;17.30;99.90
2579;DHT22;1299;48.282;14.398;2023-06-14T05:53:59;17.90;99.90
2579;DHT22;1299;48.282;14.398;2023-06-14T05:56:26;18.20;99.90
2579;DHT22;1299;48.282;14.398;2023-06-14T05:58:55;18.30;99.90
2579;DHT22;1299;48.282;14.398;2023-06-14T06:01:21;18.40;99.90
2579;DHT22;1299;48.282;14.398;2023-06-14T06:03:48;18.00;99.90
2579;DHT22;1299;48.282;14.398;2023-06-14T06:06:15;18.60;99.90
2579;DHT22;1299;48.282;14.398;2023-06-14T06:08:43;18.50;99.90
2579;DHT22;1299;48.282;14.398;2023-06-14T06:11:10;19.00;99.90
2579;DHT22;1299;48.282;14.398;2023-06-14T06:13:38;17.80;99.90
2579;DHT22;1299;48.282;14.398;2023-06-14T06:16:07;17.60;99.90
2579;DHT22;1299;48.282;14.398;2023-06-14T06:18:35;18.50;99.90
2579;DHT22;1299;48.282;14.398;2023-06-14T06:21:04;18.90;99.90
2579;DHT22;1299;48.282;14.398;2023-06-14T06:23:31;19.20;99.90
2579;DHT22;1299;48.282;14.398;2023-06-14T06:25:58;19.60;99.90
2579;DHT22;1299;48.282;14.398;2023-06-14T06:28:25;20.10;99.90
2579;DHT22;1299;48.282;14.398;2023-06-14T06:30:52;19.50;99.90
2579;DHT22;1299;48.282;14.398;2023-06-14T06:33:20;19.00;99.90
2579;DHT22;1299;48.282;14.398;2023-06-14T06:35:47;19.30;99.90
2579;DHT22;1299;48.282;14.398;2023-06-14T06:38:14;19.60;99.90
2579;DHT22;1299;48.282;14.398;2023-06-14T06:40:41;19.80;99.90
2579;DHT22;1299;48.282;14.398;2023-06-14T06:43:08;19.60;99.90
2579;DHT22;1299;48.282;14.398;2023-06-14T06:45:35;18.90;99.90
2579;DHT22;1299;48.282;14.398;2023-06-14T06:48:02;19.70;99.90
2579;DHT22;1299;48.282;14.398;2023-06-14T06:50:30;19.90;99.90
2579;DHT22;1299;48.282;14.398;2023-06-14T06:52:57;19.60;99.90
2579;DHT22;1299;48.282;14.398;2023-06-14T06:55:24;19.00;99.90
2579;DHT22;1299;48.282;14.398;2023-06-14T06:57:51;19.10;99.90
2579;DHT22;1299;48.282;14.398;2023-06-14T07:00:19;19.20;99.90
2579;DHT22;1299;48.282;14.398;2023-06-14T07:02:46;19.90;99.90
2579;DHT22;1299;48.282;14.398;2023-06-14T07:05:13;19.70;99.90
2579;DHT22;1299;48.282;14.398;2023-06-14T07:07:42;19.90;99.90
2579;DHT22;1299;48.282;14.398;2023-06-14T07:10:09;19.90;99.90
2579;DHT22;1299;48.282;14.398;2023-06-14T07:12:36;20.40;99.90
2579;DHT22;1299;48.282;14.398;2023-06-14T07:15:06;20.60;99.90
2579;DHT22;1299;48.282;14.398;2023-06-14T07:17:34;20.80;99.90
2579;DHT22;1299;48.282;14.398;2023-06-14T07:20:02;19.80;99.90
2579;DHT22;1299;48.282;14.398;2023-06-14T07:22:38;20.20;99.90
2579;DHT22;1299;48.282;14.398;2023-06-14T07:25:08;20.80;99.90
2579;DHT22;1299;48.282;14.398;2023-06-14T07:27:35;21.10;99.90
2579;DHT22;1299;48.282;14.398;2023-06-14T07:30:02;21.10;99.90
2579;DHT22;1299;48.282;14.398;2023-06-14T07:32:29;21.00;99.90
2579;DHT22;1299;48.282;14.398;2023-06-14T07:34:56;20.80;99.90
2579;DHT22;1299;48.282;14.398;2023-06-14T07:37:23;21.00;99.90
2579;DHT22;1299;48.282;14.398;2023-06-14T07:39:50;21.10;99.90
2579;DHT22;1299;48.282;14.398;2023-06-14T07:42:18;20.70;99.90
2579;DHT22;1299;48.282;14.398;2023-06-14T07:44:46;20.90;99.90
2579;DHT22;1299;48.282;14.398;2023-06-14T07:47:13;20.80;99.90
2579;DHT22;1299;48.282;14.398;2023-06-14T07:49:40;20.70;99.90
2579;DHT22;1299;48.282;14.398;2023-06-14T07:52:07;20.70;99.90
2579;DHT22;1299;48.282;14.398;2023-06-14T07:54:34;21.10;99.90
2579;DHT22;1299;48.282;14.398;2023-06-14T07:57:01;21.60;99.90
2579;DHT22;1299;48.282;14.398;2023-06-14T07:59:30;21.70;99.90
2579;DHT22;1299;48.282;14.398;2023-06-14T08:01:57;21.50;98.50
2579;DHT22;1299;48.282;14.398;2023-06-14T08:04:24;21.40;98.40
2579;DHT22;1299;48.282;14.398;2023-06-14T08:06:51;20.60;97.30
2579;DHT22;1299;48.282;14.398;2023-06-14T08:09:19;20.40;98.50
2579;DHT22;1299;48.282;14.398;2023-06-14T08:11:46;20.50;99.90
2579;DHT22;1299;48.282;14.398;2023-06-14T08:14:13;21.00;98.10
2579;DHT22;1299;48.282;14.398;2023-06-14T08:16:41;20.90;98.70
2579;DHT22;1299;48.282;14.398;2023-06-14T08:19:08;21.20;99.60
2579;DHT22;1299;48.282;14.398;2023-06-14T08:21:36;20.90;99.90
2579;DHT22;1299;48.282;14.398;2023-06-14T08:24:03;21.70;97.10
2579;DHT22;1299;48.282;14.398;2023-06-14T08:26:30;21.30;97.60
2579;DHT22;1299;48.282;14.398;2023-06-14T08:28:57;21.10;97.40
2579;DHT22;1299;48.282;14.398;2023-06-14T08:31:24;21.40;97.30
2579;DHT22;1299;48.282;14.398;2023-06-14T08:33:54;21.40;97.10
2579;DHT22;1299;48.282;14.398;2023-06-14T08:36:21;21.30;97.10
2579;DHT22;1299;48.282;14.398;2023-06-14T08:38:48;21.00;96.60
2579;DHT22;1299;48.282;14.398;2023-06-14T08:41:20;21.10;96.40
2579;DHT22;1299;48.282;14.398;2023-06-14T08:43:48;20.40;96.60
2579;DHT22;1299;48.282;14.398;2023-06-14T08:46:17;20.40;98.10
2579;DHT22;1299;48.282;14.398;2023-06-14T08:48:46;20.50;98.30
2579;DHT22;1299;48.282;14.398;2023-06-14T08:51:17;20.40;98.90
2579;DHT22;1299;48.282;14.398;2023-06-14T08:53:45;20.70;98.80
2579;DHT22;1299;48.282;14.398;2023-06-14T08:56:12;21.00;97.90
2579;DHT22;1299;48.282;14.398;2023-06-14T08:58:42;21.50;97.60
2579;DHT22;1299;48.282;14.398;2023-06-14T09:01:10;21.80;97.60
2579;DHT22;1299;48.282;14.398;2023-06-14T09:03:40;22.10;97.70
2579;DHT22;1299;48.282;14.398;2023-06-14T09:06:07;21.30;96.60
2579;DHT22;1299;48.282;14.398;2023-06-14T09:08:42;21.30;96.30
2579;DHT22;1299;48.282;14.398;2023-06-14T09:11:11;21.60;97.40
2579;DHT22;1299;48.282;14.398;2023-06-14T09:13:39;21.80;96.40
2579;DHT22;1299;48.282;14.398;2023-06-14T09:16:06;21.80;96.00
2579;DHT22;1299;48.282;14.398;2023-06-14T09:18:36;22.50;97.60
2579;DHT22;1299;48.282;14.398;2023-06-14T09:21:05;21.10;95.60
2579;DHT22;1299;48.282;14.398;2023-06-14T09:23:35;21.70;97.70
2579;DHT22;1299;48.282;14.398;2023-06-14T09:26:08;21.40;95.80
2579;DHT22;1299;48.282;14.398;2023-06-14T09:28:35;21.70;96.70
2579;DHT22;1299;48.282;14.398;2023-06-14T09:31:02;21.60;96.90
2579;DHT22;1299;48.282;14.398;2023-06-14T09:33:31;21.80;97.00
2579;DHT22;1299;48.282;14.398;2023-06-14T09:35:58;22.00;96.20
2579;DHT22;1299;48.282;14.398;2023-06-14T09:38:25;22.50;96.90
2579;DHT22;1299;48.282;14.398;2023-06-14T09:40:55;22.80;95.60
2579;DHT22;1299;48.282;14.398;2023-06-14T09:43:24;22.10;95.70
2579;DHT22;1299;48.282;14.398;2023-06-14T09:45:54;22.50;96.00
2579;DHT22;1299;48.282;14.398;2023-06-14T09:48:21;22.70;97.40
2579;DHT22;1299;48.282;14.398;2023-06-14T09:50:50;22.40;96.20
2579;DHT22;1299;48.282;14.398;2023-06-14T09:53:20;22.40;96.60
2579;DHT22;1299;48.282;14.398;2023-06-14T09:55:49;22.70;95.80
2579;DHT22;1299;48.282;14.398;2023-06-14T09:58:19;22.90;95.80
2579;DHT22;1299;48.282;14.398;2023-06-14T10:00:50;22.10;97.00
2579;DHT22;1299;48.282;14.398;2023-06-14T10:03:22;22.90;95.00
2579;DHT22;1299;48.282;14.398;2023-06-14T10:05:51;22.00;94.90
2579;DHT22;1299;48.282;14.398;2023-06-14T10:08:19;21.90;95.10
2579;DHT22;1299;48.282;14.398;2023-06-14T10:10:46;22.20;94.80
2579;DHT22;1299;48.282;14.398;2023-06-14T10:13:14;22.40;95.90
2579;DHT22;1299;48.282;14.398;2023-06-14T10:15:46;22.30;94.40
2579;DHT22;1299;48.282;14.398;2023-06-14T10:18:21;22.90;95.60
2579;DHT22;1299;48.282;14.398;2023-06-14T10:20:55;22.70;95.70
2579;DHT22;1299;48.282;14.398;2023-06-14T10:23:26;23.20;94.50
2579;DHT22;1299;48.282;14.398;2023-06-14T10:25:56;22.80;94.20
2579;DHT22;1299;48.282;14.398;2023-06-14T10:28:23;22.90;93.30
2579;DHT22;1299;48.282;14.398;2023-06-14T10:31:06;23.50;93.40
2579;DHT22;1299;48.282;14.398;2023-06-14T10:33:35;24.00;93.70
2579;DHT22;1299;48.282;14.398;2023-06-14T10:36:26;22.60;92.80
2579;DHT22;1299;48.282;14.398;2023-06-14T10:38:58;23.40;93.60
2579;DHT22;1299;48.282;14.398;2023-06-14T10:41:27;23.00;93.60
2579;DHT22;1299;48.282;14.398;2023-06-14T10:46:55;22.60;93.10
2579;DHT22;1299;48.282;14.398;2023-06-14T10:49:38;23.20;92.60
2579;DHT22;1299;48.282;14.398;2023-06-14T10:52:08;23.20;92.70
2579;DHT22;1299;48.282;14.398;2023-06-14T10:57:42;23.80;92.10
2579;DHT22;1299;48.282;14.398;2023-06-14T11:00:10;24.00;90.70
2579;DHT22;1299;48.282;14.398;2023-06-14T11:03:12;23.80;91.20
2579;DHT22;1299;48.282;14.398;2023-06-14T11:05:55;23.00;91.00
2579;DHT22;1299;48.282;14.398;2023-06-14T11:08:46;23.50;91.50
2579;DHT22;1299;48.282;14.398;2023-06-14T11:11:18;23.30;91.90
2579;DHT22;1299;48.282;14.398;2023-06-14T11:13:48;23.10;91.40
2579;DHT22;1299;48.282;14.398;2023-06-14T11:16:16;23.60;92.50
2579;DHT22;1299;48.282;14.398;2023-06-14T11:18:44;23.10;92.00
2579;DHT22;1299;48.282;14.398;2023-06-14T11:21:15;23.10;91.30
2579;DHT22;1299;48.282;14.398;2023-06-14T11:23:49;23.30;91.10
2579;DHT22;1299;48.282;14.398;2023-06-14T11:26:16;23.40;90.80
2579;DHT22;1299;48.282;14.398;2023-06-14T11:28:43;23.00;91.70
2579;DHT22;1299;48.282;14.398;2023-06-14T11:31:10;23.60;91.50
2579;DHT22;1299;48.282;14.398;2023-06-14T11:33:37;23.90;92.20
2579;DHT22;1299;48.282;14.398;2023-06-14T11:36:05;24.70;90.50
2579;DHT22;1299;48.282;14.398;2023-06-14T11:38:36;24.80;84.90
2579;DHT22;1299;48.282;14.398;2023-06-14T11:41:03;23.90;84.70
2579;DHT22;1299;48.282;14.398;2023-06-14T11:43:31;23.70;86.40
2579;DHT22;1299;48.282;14.398;2023-06-14T11:46:00;23.70;87.30
2579;DHT22;1299;48.282;14.398;2023-06-14T11:48:36;23.60;85.40
2579;DHT22;1299;48.282;14.398;2023-06-14T11:51:03;23.30;86.00
2579;DHT22;1299;48.282;14.398;2023-06-14T11:53:30;23.30;83.90
2579;DHT22;1299;48.282;14.398;2023-06-14T11:55:59;23.90;84.10
2579;DHT22;1299;48.282;14.398;2023-06-14T11:58:26;23.50;85.20
2579;DHT22;1299;48.282;14.398;2023-06-14T12:00:53;23.80;85.00
2579;DHT22;1299;48.282;14.398;2023-06-14T12:03:23;24.10;83.60
2579;DHT22;1299;48.282;14.398;2023-06-14T12:06:01;23.50;83.10
2579;DHT22;1299;48.282;14.398;2023-06-14T12:08:32;24.10;85.00
2579;DHT22;1299;48.282;14.398;2023-06-14T12:11:06;23.90;84.80
2579;DHT22;1299;48.282;14.398;2023-06-14T12:13:34;24.20;87.50
2579;DHT22;1299;48.282;14.398;2023-06-14T12:16:02;23.70;81.00
2579;DHT22;1299;48.282;14.398;2023-06-14T12:18:34;24.40;84.30
2579;DHT22;1299;48.282;14.398;2023-06-14T12:21:01;24.70;85.40
2579;DHT22;1299;48.282;14.398;2023-06-14T12:23:43;25.00;83.50
2579;DHT22;1299;48.282;14.398;2023-06-14T12:26:14;25.00;83.80
2579;DHT22;1299;48.282;14.398;2023-06-14T12:28:42;25.20;85.50
2579;DHT22;1299;48.282;14.398;2023-06-14T12:31:10;24.70;85.60
2579;DHT22;1299;48.282;14.398;2023-06-14T12:33:38;24.70;85.80
2579;DHT22;1299;48.282;14.398;2023-06-14T12:36:07;24.80;83.90
2579;DHT22;1299;48.282;14.398;2023-06-14T12:38:35;24.70;84.90
2579;DHT22;1299;48.282;14.398;2023-06-14T12:41:02;24.80;82.80
2579;DHT22;1299;48.282;14.398;2023-06-14T12:43:30;24.40;82.60
2579;DHT22;1299;48.282;14.398;2023-06-14T12:45:57;24.60;86.10
2579;DHT22;1299;48.282;14.398;2023-06-14T12:48:24;24.80;85.50
2579;DHT22;1299;48.282;14.398;2023-06-14T12:50:52;25.10;85.90
2579;DHT22;1299;48.282;14.398;2023-06-14T12:53:19;25.20;84.00
2579;DHT22;1299;48.282;14.398;2023-06-14T12:55:46;25.00;82.30
2579;DHT22;1299;48.282;14.398;2023-06-14T12:58:13;25.20;83.90
2579;DHT22;1299;48.282;14.398;2023-06-14T13:00:44;25.20;85.00
2579;DHT22;1299;48.282;14.398;2023-06-14T13:03:10;25.30;85.00
2579;DHT22;1299;48.282;14.398;2023-06-14T13:05:37;25.40;85.40
2579;DHT22;1299;48.282;14.398;2023-06-14T13:08:07;25.50;82.50
2579;DHT22;1299;48.282;14.398;2023-06-14T13:10:35;25.50;83.40
2579;DHT22;1299;48.282;14.398;2023-06-14T13:13:01;25.60;82.10
2579;DHT22;1299;48.282;14.398;2023-06-14T13:15:28;25.70;82.80
2579;DHT22;1299;48.282;14.398;2023-06-14T13:17:57;25.60;80.90
2579;DHT22;1299;48.282;14.398;2023-06-14T13:20:24;25.50;79.40
2579;DHT22;1299;48.282;14.398;2023-06-14T13:22:51;25.40;79.70
2579;DHT22;1299;48.282;14.398;2023-06-14T13:25:18;25.40;77.90
2579;DHT22;1299;48.282;14.398;2023-06-14T13:27:45;25.40;74.80
2579;DHT22;1299;48.282;14.398;2023-06-14T13:30:12;25.30;78.90
2579;DHT22;1299;48.282;14.398;2023-06-14T13:32:39;24.80;78.20
2579;DHT22;1299;48.282;14.398;2023-06-14T13:35:08;24.40;77.10
2579;DHT22;1299;48.282;14.398;2023-06-14T13:37:35;23.70;77.20
2579;DHT22;1299;48.282;14.398;2023-06-14T13:40:02;24.30;78.50
2579;DHT22;1299;48.282;14.398;2023-06-14T13:42:29;23.90;78.70
2579;DHT22;1299;48.282;14.398;2023-06-14T13:44:58;23.70;78.10
2579;DHT22;1299;48.282;14.398;2023-06-14T13:47:25;23.80;78.30
2579;DHT22;1299;48.282;14.398;2023-06-14T13:49:52;23.90;80.10
2579;DHT22;1299;48.282;14.398;2023-06-14T13:52:21;23.20;78.00
2579;DHT22;1299;48.282;14.398;2023-06-14T13:54:48;23.00;77.90
2579;DHT22;1299;48.282;14.398;2023-06-14T13:57:15;22.80;78.30
2579;DHT22;1299;48.282;14.398;2023-06-14T13:59:42;22.80;79.60
2579;DHT22;1299;48.282;14.398;2023-06-14T14:02:11;22.80;81.10
2579;DHT22;1299;48.282;14.398;2023-06-14T14:04:39;23.00;81.10
2579;DHT22;1299;48.282;14.398;2023-06-14T14:07:07;23.10;80.10
2579;DHT22;1299;48.282;14.398;2023-06-14T14:09:35;23.30;79.50
2579;DHT22;1299;48.282;14.398;2023-06-14T14:12:03;23.70;80.30
2579;DHT22;1299;48.282;14.398;2023-06-14T14:14:31;23.80;78.70
2579;DHT22;1299;48.282;14.398;2023-06-14T14:16:58;23.70;78.10
2579;DHT22;1299;48.282;14.398;2023-06-14T14:19:25;23.60;79.60
2579;DHT22;1299;48.282;14.398;2023-06-14T14:21:52;23.60;77.60
2579;DHT22;1299;48.282;14.398;2023-06-14T14:24:20;23.40;78.50
2579;DHT22;1299;48.282;14.398;2023-06-14T14:26:48;23.20;77.60
2579;DHT22;1299;48.282;14.398;2023-06-14T14:29:16;23.10;78.40
2579;DHT22;1299;48.282;14.398;2023-06-14T14:31:43;23.10;78.30
2579;DHT22;1299;48.282;14.398;2023-06-14T14:34:10;23.60;78.30
2579;DHT22;1299;48.282;14.398;2023-06-14T14:36:37;23.60;79.20
2579;DHT22;1299;48.282;14.398;2023-06-14T14:39:08;23.30;79.00
2579;DHT22;1299;48.282;14.398;2023-06-14T14:41:34;23.30;76.70
2579;DHT22;1299;48.282;14.398;2023-06-14T14:44:05;23.10;77.30
2579;DHT22;1299;48.282;14.398;2023-06-14T14:46:32;23.30;78.20
2579;DHT22;1299;48.282;14.398;2023-06-14T14:48:59;23.50;79.00
2579;DHT22;1299;48.282;14.398;2023-06-14T14:51:26;23.70;80.10
2579;DHT22;1299;48.282;14.398;2023-06-14T14:53:53;23.50;77.90
2579;DHT22;1299;48.282;14.398;2023-06-14T14:56:22;23.70;78.20
2579;DHT22;1299;48.282;14.398;2023-06-14T14:58:48;23.90;78.30
2579;DHT22;1299;48.282;14.398;2023-06-14T15:01:17;23.80;75.60
2579;DHT22;1299;48.282;14.398;2023-06-14T15:03:44;23.70;76.80
2579;DHT22;1299;48.282;14.398;2023-06-14T15:06:11;23.80;77.30
2579;DHT22;1299;48.282;14.398;2023-06-14T15:08:38;23.80;79.50
2579;DHT22;1299;48.282;14.398;2023-06-14T15:11:05;23.70;79.70
2579;DHT22;1299;48.282;14.398;2023-06-14T15:13:32;23.70;80.10
2579;DHT22;1299;48.282;14.398;2023-06-14T15:16:00;23.70;79.40
2579;DHT22;1299;48.282;14.398;2023-06-14T15:18:28;24.00;80.40
2579;DHT22;1299;48.282;14.398;2023-06-14T15:20:55;23.50;80.50
2579;DHT22;1299;48.282;14.398;2023-06-14T15:23:22;23.00;79.80
2579;DHT22;1299;48.282;14.398;2023-06-14T15:25:49;22.90;81.10
2579;DHT22;1299;48.282;14.398;2023-06-14T15:28:17;23.50;81.60
2579;DHT22;1299;48.282;14.398;2023-06-14T15:30:44;23.90;83.30
2579;DHT22;1299;48.282;14.398;2023-06-14T15:33:11;23.40;81.90
2579;DHT22;1299;48.282;14.398;2023-06-14T15:35:40;22.90;78.90
2579;DHT22;1299;48.282;14.398;2023-06-14T15:38:07;22.90;79.70
2579;DHT22;1299;48.282;14.398;2023-06-14T15:40:35;22.60;80.10
2579;DHT22;1299;48.282;14.398;2023-06-14T15:43:02;23.00;80.30
2579;DHT22;1299;48.282;14.398;2023-06-14T15:45:29;22.90;79.70
2579;DHT22;1299;48.282;14.398;2023-06-14T15:47:57;23.50;81.40
2579;DHT22;1299;48.282;14.398;2023-06-14T15:50:25;23.70;80.80
2579;DHT22;1299;48.282;14.398;2023-06-14T15:52:53;24.20;81.60
2579;DHT22;1299;48.282;14.398;2023-06-14T15:55:20;24.50;79.40
2579;DHT22;1299;48.282;14.398;2023-06-14T15:57:47;24.80;76.30